Weather

Webcam

Metar Feed

EGOS

190950Z AUTO 12007KT 9999 -DZ OVC006/// 04/03 Q1007